sensor_id;sensor_type;location;lat;lon;timestamp;temperature;humidity
39401;DHT22;54391;50.000;7.360;2022-10-16T00:00:43;13.10;94.70
39401;DHT22;54391;50.000;7.360;2022-10-16T00:03:11;13.00;95.40
39401;DHT22;54391;50.000;7.360;2022-10-16T00:05:39;13.00;95.30
39401;DHT22;54391;50.000;7.360;2022-10-16T00:08:07;13.00;95.50
39401;DHT22;54391;50.000;7.360;2022-10-16T00:13:05;13.00;94.30
39401;DHT22;54391;50.000;7.360;2022-10-16T00:15:33;13.00;94.20
39401;DHT22;54391;50.000;7.360;2022-10-16T00:18:02;13.00;94.00
39401;DHT22;54391;50.000;7.360;2022-10-16T00:20:30;13.00;93.20
39401;DHT22;54391;50.000;7.360;2022-10-16T00:23:18;12.90;93.60
39401;DHT22;54391;50.000;7.360;2022-10-16T00:25:54;12.90;93.80
39401;DHT22;54391;50.000;7.360;2022-10-16T00:28:24;13.00;93.90
39401;DHT22;54391;50.000;7.360;2022-10-16T00:30:51;12.90;94.10
39401;DHT22;54391;50.000;7.360;2022-10-16T00:33:19;13.00;95.00
39401;DHT22;54391;50.000;7.360;2022-10-16T00:38:14;12.90;93.90
39401;DHT22;54391;50.000;7.360;2022-10-16T00:40:42;12.90;95.20
39401;DHT22;54391;50.000;7.360;2022-10-16T00:48:13;12.80;92.70
39401;DHT22;54391;50.000;7.360;2022-10-16T00:50:41;12.80;92.80
39401;DHT22;54391;50.000;7.360;2022-10-16T00:53:10;12.80;94.40
39401;DHT22;54391;50.000;7.360;2022-10-16T00:55:39;12.80;93.60
39401;DHT22;54391;50.000;7.360;2022-10-16T01:08:38;12.90;90.10
39401;DHT22;54391;50.000;7.360;2022-10-16T01:11:10;12.90;89.60
39401;DHT22;54391;50.000;7.360;2022-10-16T01:13:42;12.80;89.50
39401;DHT22;54391;50.000;7.360;2022-10-16T01:16:14;12.90;92.30
39401;DHT22;54391;50.000;7.360;2022-10-16T01:18:46;12.90;90.80
39401;DHT22;54391;50.000;7.360;2022-10-16T01:21:17;12.90;90.10
39401;DHT22;54391;50.000;7.360;2022-10-16T01:23:51;12.90;89.70
39401;DHT22;54391;50.000;7.360;2022-10-16T01:26:35;12.90;87.80
39401;DHT22;54391;50.000;7.360;2022-10-16T01:29:09;12.80;90.00
39401;DHT22;54391;50.000;7.360;2022-10-16T01:31:40;12.80;89.80
39401;DHT22;54391;50.000;7.360;2022-10-16T01:34:11;12.90;91.40
39401;DHT22;54391;50.000;7.360;2022-10-16T01:36:47;12.80;91.40
39401;DHT22;54391;50.000;7.360;2022-10-16T01:39:18;12.80;92.90
39401;DHT22;54391;50.000;7.360;2022-10-16T01:41:50;12.80;93.40
39401;DHT22;54391;50.000;7.360;2022-10-16T01:44:22;12.70;93.00
39401;DHT22;54391;50.000;7.360;2022-10-16T01:46:53;12.70;94.60
39401;DHT22;54391;50.000;7.360;2022-10-16T01:49:21;12.70;94.00
39401;DHT22;54391;50.000;7.360;2022-10-16T01:51:53;12.60;91.90
39401;DHT22;54391;50.000;7.360;2022-10-16T01:54:23;12.50;93.30
39401;DHT22;54391;50.000;7.360;2022-10-16T01:56:53;12.50;93.70
39401;DHT22;54391;50.000;7.360;2022-10-16T01:59:26;12.40;92.70
39401;DHT22;54391;50.000;7.360;2022-10-16T02:01:59;12.30;91.60
39401;DHT22;54391;50.000;7.360;2022-10-16T02:04:33;12.30;92.10
39401;DHT22;54391;50.000;7.360;2022-10-16T02:07:01;12.20;91.30
39401;DHT22;54391;50.000;7.360;2022-10-16T02:09:29;12.30;92.30
39401;DHT22;54391;50.000;7.360;2022-10-16T02:11:59;12.30;93.90
39401;DHT22;54391;50.000;7.360;2022-10-16T02:21:57;12.30;97.50
39401;DHT22;54391;50.000;7.360;2022-10-16T02:24:29;9.80;96.90
39401;DHT22;54391;50.000;7.360;2022-10-16T02:27:03;12.30;98.10
39401;DHT22;54391;50.000;7.360;2022-10-16T02:29:38;12.30;98.10
39401;DHT22;54391;50.000;7.360;2022-10-16T02:32:07;12.30;98.90
39401;DHT22;54391;50.000;7.360;2022-10-16T02:34:36;12.30;99.30
39401;DHT22;54391;50.000;7.360;2022-10-16T02:37:04;12.30;97.80
39401;DHT22;54391;50.000;7.360;2022-10-16T02:39:33;12.30;97.80
39401;DHT22;54391;50.000;7.360;2022-10-16T02:42:00;12.30;98.40
39401;DHT22;54391;50.000;7.360;2022-10-16T02:44:29;12.30;98.90
39401;DHT22;54391;50.000;7.360;2022-10-16T02:46:57;13.90;99.30
39401;DHT22;54391;50.000;7.360;2022-10-16T02:49:25;12.30;97.30
39401;DHT22;54391;50.000;7.360;2022-10-16T02:51:52;12.30;98.20
39401;DHT22;54391;50.000;7.360;2022-10-16T02:54:19;12.20;98.60
39401;DHT22;54391;50.000;7.360;2022-10-16T02:56:47;12.20;99.80
39401;DHT22;54391;50.000;7.360;2022-10-16T02:59:14;12.10;99.10
39401;DHT22;54391;50.000;7.360;2022-10-16T03:01:42;12.10;99.90
39401;DHT22;54391;50.000;7.360;2022-10-16T03:04:11;12.10;99.70
39401;DHT22;54391;50.000;7.360;2022-10-16T03:09:06;12.00;98.80
39401;DHT22;54391;50.000;7.360;2022-10-16T03:11:33;12.00;98.80
39401;DHT22;54391;50.000;7.360;2022-10-16T03:16:28;11.90;97.50
39401;DHT22;54391;50.000;7.360;2022-10-16T03:23:52;11.00;96.20
39401;DHT22;54391;50.000;7.360;2022-10-16T03:26:20;11.80;97.30
39401;DHT22;54391;50.000;7.360;2022-10-16T03:28:47;11.80;96.60
39401;DHT22;54391;50.000;7.360;2022-10-16T03:31:14;11.80;95.20
39401;DHT22;54391;50.000;7.360;2022-10-16T03:33:42;16.60;98.20
39401;DHT22;54391;50.000;7.360;2022-10-16T03:36:09;11.50;95.60
39401;DHT22;54391;50.000;7.360;2022-10-16T03:38:38;11.80;96.20
39401;DHT22;54391;50.000;7.360;2022-10-16T03:41:05;11.80;96.20
39401;DHT22;54391;50.000;7.360;2022-10-16T03:43:33;11.80;97.90
39401;DHT22;54391;50.000;7.360;2022-10-16T03:46:00;11.90;98.30
39401;DHT22;54391;50.000;7.360;2022-10-16T03:48:29;12.00;98.70
39401;DHT22;54391;50.000;7.360;2022-10-16T03:50:56;11.90;97.60
39401;DHT22;54391;50.000;7.360;2022-10-16T03:53:24;11.90;98.90
39401;DHT22;54391;50.000;7.360;2022-10-16T04:00:48;11.90;98.70
39401;DHT22;54391;50.000;7.360;2022-10-16T04:03:15;11.90;99.90
39401;DHT22;54391;50.000;7.360;2022-10-16T04:05:44;11.90;99.90
39401;DHT22;54391;50.000;7.360;2022-10-16T04:08:12;11.90;99.90
39401;DHT22;54391;50.000;7.360;2022-10-16T04:10:39;11.90;99.60
39401;DHT22;54391;50.000;7.360;2022-10-16T04:15:35;11.90;99.90
39401;DHT22;54391;50.000;7.360;2022-10-16T04:27:56;12.10;99.90
39401;DHT22;54391;50.000;7.360;2022-10-16T04:32:52;12.30;99.90
39401;DHT22;54391;50.000;7.360;2022-10-16T04:35:21;12.20;99.90
39401;DHT22;54391;50.000;7.360;2022-10-16T04:37:48;12.40;99.90
39401;DHT22;54391;50.000;7.360;2022-10-16T04:40:16;12.40;99.90
39401;DHT22;54391;50.000;7.360;2022-10-16T04:47:40;12.40;99.90
39401;DHT22;54391;50.000;7.360;2022-10-16T04:55:04;12.40;99.90
39401;DHT22;54391;50.000;7.360;2022-10-16T04:57:32;12.40;99.90
39401;DHT22;54391;50.000;7.360;2022-10-16T05:04:57;12.20;99.90
39401;DHT22;54391;50.000;7.360;2022-10-16T05:09:52;12.30;99.90
39401;DHT22;54391;50.000;7.360;2022-10-16T05:14:48;12.20;99.90
39401;DHT22;54391;50.000;7.360;2022-10-16T05:17:16;12.20;99.90
39401;DHT22;54391;50.000;7.360;2022-10-16T05:19:44;12.30;99.30
39401;DHT22;54391;50.000;7.360;2022-10-16T05:22:13;12.30;99.90
39401;DHT22;54391;50.000;7.360;2022-10-16T05:24:41;12.30;98.90
39401;DHT22;54391;50.000;7.360;2022-10-16T05:27:08;12.40;98.90
39401;DHT22;54391;50.000;7.360;2022-10-16T05:29:35;12.40;98.80
39401;DHT22;54391;50.000;7.360;2022-10-16T05:32:03;12.40;99.50
39401;DHT22;54391;50.000;7.360;2022-10-16T05:34:30;12.40;99.30
39401;DHT22;54391;50.000;7.360;2022-10-16T05:36:57;12.50;99.70
39401;DHT22;54391;50.000;7.360;2022-10-16T05:44:22;12.50;99.30
39401;DHT22;54391;50.000;7.360;2022-10-16T05:46:49;12.50;99.30
39401;DHT22;54391;50.000;7.360;2022-10-16T05:49:16;12.60;99.30
39401;DHT22;54391;50.000;7.360;2022-10-16T05:51:43;12.50;99.90
39401;DHT22;54391;50.000;7.360;2022-10-16T05:56:40;12.50;99.40
39401;DHT22;54391;50.000;7.360;2022-10-16T05:59:07;12.60;99.90
39401;DHT22;54391;50.000;7.360;2022-10-16T06:01:34;12.60;99.60
39401;DHT22;54391;50.000;7.360;2022-10-16T06:04:02;12.60;99.90
39401;DHT22;54391;50.000;7.360;2022-10-16T06:06:29;12.60;99.80
39401;DHT22;54391;50.000;7.360;2022-10-16T06:08:57;12.60;99.90
39401;DHT22;54391;50.000;7.360;2022-10-16T06:11:26;12.50;99.50
39401;DHT22;54391;50.000;7.360;2022-10-16T06:13:57;12.50;99.80
39401;DHT22;54391;50.000;7.360;2022-10-16T06:16:28;12.60;98.50
39401;DHT22;54391;50.000;7.360;2022-10-16T06:18:56;12.50;99.30
39401;DHT22;54391;50.000;7.360;2022-10-16T06:21:26;12.60;98.20
39401;DHT22;54391;50.000;7.360;2022-10-16T06:23:54;12.60;98.90
39401;DHT22;54391;50.000;7.360;2022-10-16T06:26:24;12.70;99.50
39401;DHT22;54391;50.000;7.360;2022-10-16T06:28:55;12.70;99.70
39401;DHT22;54391;50.000;7.360;2022-10-16T06:31:23;12.70;98.90
39401;DHT22;54391;50.000;7.360;2022-10-16T06:33:53;12.70;99.90
39401;DHT22;54391;50.000;7.360;2022-10-16T06:38:49;12.70;99.10
39401;DHT22;54391;50.000;7.360;2022-10-16T06:41:18;12.70;99.90
39401;DHT22;54391;50.000;7.360;2022-10-16T06:43:47;12.80;99.90
39401;DHT22;54391;50.000;7.360;2022-10-16T06:46:18;12.70;99.90
39401;DHT22;54391;50.000;7.360;2022-10-16T06:48:45;12.70;99.90
39401;DHT22;54391;50.000;7.360;2022-10-16T06:51:14;12.80;99.90
39401;DHT22;54391;50.000;7.360;2022-10-16T06:53:43;12.80;99.90
39401;DHT22;54391;50.000;7.360;2022-10-16T06:56:13;12.80;99.90
39401;DHT22;54391;50.000;7.360;2022-10-16T06:58:41;12.80;99.90
39401;DHT22;54391;50.000;7.360;2022-10-16T07:01:08;12.90;99.90
39401;DHT22;54391;50.000;7.360;2022-10-16T07:03:38;13.00;99.90
39401;DHT22;54391;50.000;7.360;2022-10-16T07:06:07;13.00;99.90
39401;DHT22;54391;50.000;7.360;2022-10-16T07:08:35;13.00;99.90
39401;DHT22;54391;50.000;7.360;2022-10-16T07:11:05;13.00;99.90
39401;DHT22;54391;50.000;7.360;2022-10-16T07:13:33;13.00;99.90
39401;DHT22;54391;50.000;7.360;2022-10-16T07:16:04;13.00;99.90
39401;DHT22;54391;50.000;7.360;2022-10-16T07:18:32;13.00;99.90
39401;DHT22;54391;50.000;7.360;2022-10-16T07:21:05;13.00;99.90
39401;DHT22;54391;50.000;7.360;2022-10-16T07:23:33;13.00;99.90
39401;DHT22;54391;50.000;7.360;2022-10-16T07:26:00;13.00;99.90
39401;DHT22;54391;50.000;7.360;2022-10-16T07:28:29;13.10;99.90
39401;DHT22;54391;50.000;7.360;2022-10-16T07:31:00;13.00;99.90
39401;DHT22;54391;50.000;7.360;2022-10-16T07:33:30;13.10;99.90
39401;DHT22;54391;50.000;7.360;2022-10-16T07:35:58;13.10;99.90
39401;DHT22;54391;50.000;7.360;2022-10-16T07:38:27;13.10;99.90
39401;DHT22;54391;50.000;7.360;2022-10-16T07:40:57;13.10;99.90
39401;DHT22;54391;50.000;7.360;2022-10-16T07:43:25;13.10;99.90
39401;DHT22;54391;50.000;7.360;2022-10-16T07:45:53;13.10;99.90
39401;DHT22;54391;50.000;7.360;2022-10-16T07:48:21;13.10;99.90
39401;DHT22;54391;50.000;7.360;2022-10-16T07:53:17;13.10;99.90
39401;DHT22;54391;50.000;7.360;2022-10-16T07:58:13;13.00;99.90
39401;DHT22;54391;50.000;7.360;2022-10-16T08:00:40;13.10;99.90
39401;DHT22;54391;50.000;7.360;2022-10-16T08:03:08;13.10;99.90
39401;DHT22;54391;50.000;7.360;2022-10-16T08:05:35;13.10;99.90
39401;DHT22;54391;50.000;7.360;2022-10-16T08:08:03;13.10;99.90
39401;DHT22;54391;50.000;7.360;2022-10-16T08:10:30;13.20;99.90
39401;DHT22;54391;50.000;7.360;2022-10-16T08:12:59;13.20;99.90
39401;DHT22;54391;50.000;7.360;2022-10-16T08:15:27;13.40;99.90
39401;DHT22;54391;50.000;7.360;2022-10-16T08:17:57;13.40;99.90
39401;DHT22;54391;50.000;7.360;2022-10-16T08:20:24;13.60;99.90
39401;DHT22;54391;50.000;7.360;2022-10-16T08:22:52;13.80;99.90
39401;DHT22;54391;50.000;7.360;2022-10-16T08:25:20;14.10;99.90
39401;DHT22;54391;50.000;7.360;2022-10-16T08:27:48;14.50;98.30
39401;DHT22;54391;50.000;7.360;2022-10-16T08:30:17;14.70;94.50
39401;DHT22;54391;50.000;7.360;2022-10-16T08:32:45;14.70;93.60
39401;DHT22;54391;50.000;7.360;2022-10-16T08:35:13;14.80;92.20
39401;DHT22;54391;50.000;7.360;2022-10-16T08:37:41;14.70;89.30
39401;DHT22;54391;50.000;7.360;2022-10-16T08:40:16;14.60;91.30
39401;DHT22;54391;50.000;7.360;2022-10-16T08:42:59;14.50;91.40
39401;DHT22;54391;50.000;7.360;2022-10-16T08:45:42;14.30;92.40
39401;DHT22;54391;50.000;7.360;2022-10-16T08:48:19;14.00;93.70
39401;DHT22;54391;50.000;7.360;2022-10-16T08:50:50;14.10;94.80
39401;DHT22;54391;50.000;7.360;2022-10-16T08:53:22;13.90;94.10
39401;DHT22;54391;50.000;7.360;2022-10-16T08:55:52;13.90;94.00
39401;DHT22;54391;50.000;7.360;2022-10-16T08:58:22;13.90;95.40
39401;DHT22;54391;50.000;7.360;2022-10-16T09:00:54;13.70;96.30
39401;DHT22;54391;50.000;7.360;2022-10-16T09:06:25;13.70;98.10
39401;DHT22;54391;50.000;7.360;2022-10-16T09:09:07;13.70;98.30
39401;DHT22;54391;50.000;7.360;2022-10-16T09:11:45;13.80;99.30
39401;DHT22;54391;50.000;7.360;2022-10-16T09:14:40;13.80;99.70
39401;DHT22;54391;50.000;7.360;2022-10-16T09:17:25;13.90;99.60
39401;DHT22;54391;50.000;7.360;2022-10-16T09:19:56;13.90;98.50
39401;DHT22;54391;50.000;7.360;2022-10-16T09:22:29;14.00;99.40
39401;DHT22;54391;50.000;7.360;2022-10-16T09:25:00;14.00;98.90
39401;DHT22;54391;50.000;7.360;2022-10-16T09:27:31;14.00;97.60
39401;DHT22;54391;50.000;7.360;2022-10-16T09:29:59;14.20;96.90
39401;DHT22;54391;50.000;7.360;2022-10-16T09:32:28;14.30;97.40
39401;DHT22;54391;50.000;7.360;2022-10-16T09:34:55;14.40;97.90
39401;DHT22;54391;50.000;7.360;2022-10-16T09:39:53;14.60;94.20
39401;DHT22;54391;50.000;7.360;2022-10-16T09:42:23;14.50;94.30
39401;DHT22;54391;50.000;7.360;2022-10-16T09:44:52;14.60;94.50
39401;DHT22;54391;50.000;7.360;2022-10-16T09:47:23;14.50;94.70
39401;DHT22;54391;50.000;7.360;2022-10-16T09:49:53;14.70;93.40
39401;DHT22;54391;50.000;7.360;2022-10-16T09:52:22;14.80;94.60
39401;DHT22;54391;50.000;7.360;2022-10-16T09:57:18;15.00;91.40
39401;DHT22;54391;50.000;7.360;2022-10-16T10:02:16;15.20;88.00
39401;DHT22;54391;50.000;7.360;2022-10-16T10:04:48;15.10;89.00
39401;DHT22;54391;50.000;7.360;2022-10-16T10:07:25;15.10;89.40
39401;DHT22;54391;50.000;7.360;2022-10-16T10:09:54;15.10;90.60
39401;DHT22;54391;50.000;7.360;2022-10-16T10:12:24;15.00;89.10
39401;DHT22;54391;50.000;7.360;2022-10-16T10:14:53;15.10;89.70
39401;DHT22;54391;50.000;7.360;2022-10-16T10:17:22;15.20;89.50
39401;DHT22;54391;50.000;7.360;2022-10-16T10:19:52;15.40;88.90
39401;DHT22;54391;50.000;7.360;2022-10-16T10:22:29;15.70;85.40
39401;DHT22;54391;50.000;7.360;2022-10-16T10:28:19;16.00;80.80
39401;DHT22;54391;50.000;7.360;2022-10-16T10:30:56;16.00;77.90
39401;DHT22;54391;50.000;7.360;2022-10-16T10:33:30;16.00;77.90
39401;DHT22;54391;50.000;7.360;2022-10-16T10:36:10;16.10;78.70
39401;DHT22;54391;50.000;7.360;2022-10-16T10:38:45;16.40;72.50
39401;DHT22;54391;50.000;7.360;2022-10-16T10:44:08;17.60;62.50
39401;DHT22;54391;50.000;7.360;2022-10-16T10:46:41;17.70;56.00
39401;DHT22;54391;50.000;7.360;2022-10-16T10:49:17;17.70;55.40
39401;DHT22;54391;50.000;7.360;2022-10-16T10:52:02;17.50;56.60
39401;DHT22;54391;50.000;7.360;2022-10-16T10:54:38;17.50;56.80
39401;DHT22;54391;50.000;7.360;2022-10-16T10:57:12;16.70;64.20
39401;DHT22;54391;50.000;7.360;2022-10-16T10:59:57;16.50;65.90
39401;DHT22;54391;50.000;7.360;2022-10-16T11:02:35;16.70;69.90
39401;DHT22;54391;50.000;7.360;2022-10-16T11:05:35;17.60;62.50
39401;DHT22;54391;50.000;7.360;2022-10-16T11:08:10;18.40;56.20
39401;DHT22;54391;50.000;7.360;2022-10-16T11:10:45;18.90;48.30
39401;DHT22;54391;50.000;7.360;2022-10-16T11:13:24;19.40;42.10
39401;DHT22;54391;50.000;7.360;2022-10-16T11:15:58;19.10;46.10
39401;DHT22;54391;50.000;7.360;2022-10-16T11:18:37;19.20;42.40
39401;DHT22;54391;50.000;7.360;2022-10-16T11:21:10;19.50;41.50
39401;DHT22;54391;50.000;7.360;2022-10-16T11:23:42;19.40;41.50
39401;DHT22;54391;50.000;7.360;2022-10-16T11:26:18;19.10;42.20
39401;DHT22;54391;50.000;7.360;2022-10-16T11:28:49;18.40;46.70
39401;DHT22;54391;50.000;7.360;2022-10-16T11:31:22;18.20;52.20
39401;DHT22;54391;50.000;7.360;2022-10-16T11:33:57;17.80;53.50
39401;DHT22;54391;50.000;7.360;2022-10-16T11:36:33;17.80;55.60
39401;DHT22;54391;50.000;7.360;2022-10-16T11:39:11;18.20;52.50
39401;DHT22;54391;50.000;7.360;2022-10-16T11:41:48;18.40;52.80
39401;DHT22;54391;50.000;7.360;2022-10-16T11:44:19;18.40;52.20
39401;DHT22;54391;50.000;7.360;2022-10-16T11:46:52;18.00;51.40
39401;DHT22;54391;50.000;7.360;2022-10-16T11:49:27;17.70;53.10
39401;DHT22;54391;50.000;7.360;2022-10-16T11:52:03;17.50;56.20
39401;DHT22;54391;50.000;7.360;2022-10-16T11:54:35;17.50;56.40
39401;DHT22;54391;50.000;7.360;2022-10-16T11:57:09;17.80;58.10
39401;DHT22;54391;50.000;7.360;2022-10-16T11:59:42;17.80;57.10
39401;DHT22;54391;50.000;7.360;2022-10-16T12:02:31;17.70;57.20
39401;DHT22;54391;50.000;7.360;2022-10-16T12:05:18;17.70;58.00
39401;DHT22;54391;50.000;7.360;2022-10-16T12:07:52;17.60;56.30
39401;DHT22;54391;50.000;7.360;2022-10-16T12:10:26;17.80;58.90
39401;DHT22;54391;50.000;7.360;2022-10-16T12:15:25;17.90;56.20
39401;DHT22;54391;50.000;7.360;2022-10-16T12:17:54;17.90;59.80
39401;DHT22;54391;50.000;7.360;2022-10-16T12:20:25;18.00;57.50
39401;DHT22;54391;50.000;7.360;2022-10-16T12:22:56;17.90;56.80
39401;DHT22;54391;50.000;7.360;2022-10-16T12:25:26;17.80;57.90
39401;DHT22;54391;50.000;7.360;2022-10-16T12:28:02;17.70;60.90
39401;DHT22;54391;50.000;7.360;2022-10-16T12:30:32;17.70;63.20
39401;DHT22;54391;50.000;7.360;2022-10-16T12:33:02;17.60;62.10
39401;DHT22;54391;50.000;7.360;2022-10-16T12:35:32;17.80;63.00
39401;DHT22;54391;50.000;7.360;2022-10-16T12:38:17;17.60;62.30
39401;DHT22;54391;50.000;7.360;2022-10-16T12:40:45;17.60;59.90
39401;DHT22;54391;50.000;7.360;2022-10-16T12:43:38;17.60;59.80
39401;DHT22;54391;50.000;7.360;2022-10-16T12:46:33;17.50;60.20
39401;DHT22;54391;50.000;7.360;2022-10-16T12:49:20;17.40;62.00
39401;DHT22;54391;50.000;7.360;2022-10-16T12:51:48;17.40;62.20
39401;DHT22;54391;50.000;7.360;2022-10-16T12:54:17;17.70;62.40
39401;DHT22;54391;50.000;7.360;2022-10-16T12:56:54;17.70;62.30
39401;DHT22;54391;50.000;7.360;2022-10-16T12:59:40;17.60;59.00
39401;DHT22;54391;50.000;7.360;2022-10-16T13:05:26;17.40;61.90
39401;DHT22;54391;50.000;7.360;2022-10-16T13:08:11;17.40;62.70
39401;DHT22;54391;50.000;7.360;2022-10-16T13:10:42;17.40;62.80
39401;DHT22;54391;50.000;7.360;2022-10-16T13:13:40;17.40;61.90
39401;DHT22;54391;50.000;7.360;2022-10-16T13:16:19;17.40;64.20
39401;DHT22;54391;50.000;7.360;2022-10-16T13:18:59;17.20;64.40
39401;DHT22;54391;50.000;7.360;2022-10-16T13:21:39;17.30;65.80
39401;DHT22;54391;50.000;7.360;2022-10-16T13:24:19;17.40;64.20
39401;DHT22;54391;50.000;7.360;2022-10-16T13:26:55;17.30;64.30
39401;DHT22;54391;50.000;7.360;2022-10-16T13:29:30;17.30;65.90
39401;DHT22;54391;50.000;7.360;2022-10-16T13:32:01;17.20;65.80
39401;DHT22;54391;50.000;7.360;2022-10-16T13:34:43;17.20;68.50
39401;DHT22;54391;50.000;7.360;2022-10-16T13:37:17;17.30;67.90
39401;DHT22;54391;50.000;7.360;2022-10-16T13:42:16;17.30;68.70
39401;DHT22;54391;50.000;7.360;2022-10-16T13:44:48;17.30;65.60
39401;DHT22;54391;50.000;7.360;2022-10-16T13:47:19;17.40;64.90
39401;DHT22;54391;50.000;7.360;2022-10-16T13:52:17;17.40;65.70
39401;DHT22;54391;50.000;7.360;2022-10-16T13:57:14;17.60;64.10
39401;DHT22;54391;50.000;7.360;2022-10-16T14:02:19;17.80;66.30
39401;DHT22;54391;50.000;7.360;2022-10-16T14:04:49;17.90;63.90
39401;DHT22;54391;50.000;7.360;2022-10-16T14:07:21;17.90;63.10
39401;DHT22;54391;50.000;7.360;2022-10-16T14:14:47;17.80;65.20
39401;DHT22;54391;50.000;7.360;2022-10-16T14:19:47;17.70;59.30
39401;DHT22;54391;50.000;7.360;2022-10-16T14:22:26;17.70;61.90
39401;DHT22;54391;50.000;7.360;2022-10-16T14:24:54;17.60;62.40
39401;DHT22;54391;50.000;7.360;2022-10-16T14:27:28;17.50;63.80
39401;DHT22;54391;50.000;7.360;2022-10-16T14:30:21;17.50;64.10
39401;DHT22;54391;50.000;7.360;2022-10-16T14:32:56;17.40;65.30
39401;DHT22;54391;50.000;7.360;2022-10-16T14:35:29;17.50;66.70
39401;DHT22;54391;50.000;7.360;2022-10-16T14:37:59;17.40;65.50
39401;DHT22;54391;50.000;7.360;2022-10-16T14:40:29;17.20;69.90
39401;DHT22;54391;50.000;7.360;2022-10-16T14:42:57;17.20;69.80
39401;DHT22;54391;50.000;7.360;2022-10-16T14:45:28;17.00;70.00
39401;DHT22;54391;50.000;7.360;2022-10-16T14:47:57;16.80;74.50
39401;DHT22;54391;50.000;7.360;2022-10-16T14:50:27;16.70;77.70
39401;DHT22;54391;50.000;7.360;2022-10-16T14:52:55;16.70;80.10
39401;DHT22;54391;50.000;7.360;2022-10-16T14:55:23;16.60;81.80
39401;DHT22;54391;50.000;7.360;2022-10-16T14:57:51;16.60;81.10
39401;DHT22;54391;50.000;7.360;2022-10-16T15:00:20;16.50;82.70
39401;DHT22;54391;50.000;7.360;2022-10-16T15:02:49;16.50;84.90
39401;DHT22;54391;50.000;7.360;2022-10-16T15:05:18;16.50;86.70
39401;DHT22;54391;50.000;7.360;2022-10-16T15:15:25;16.30;88.30
39401;DHT22;54391;50.000;7.360;2022-10-16T15:17:56;16.40;89.60
39401;DHT22;54391;50.000;7.360;2022-10-16T15:20:25;16.50;87.80
39401;DHT22;54391;50.000;7.360;2022-10-16T15:25:32;16.40;89.70
39401;DHT22;54391;50.000;7.360;2022-10-16T15:28:00;16.30;89.80
39401;DHT22;54391;50.000;7.360;2022-10-16T15:30:29;16.30;90.10
39401;DHT22;54391;50.000;7.360;2022-10-16T15:32:56;16.30;91.30
39401;DHT22;54391;50.000;7.360;2022-10-16T15:35:24;16.30;92.20
39401;DHT22;54391;50.000;7.360;2022-10-16T15:40:21;16.20;93.60
39401;DHT22;54391;50.000;7.360;2022-10-16T15:42:49;16.20;95.30
39401;DHT22;54391;50.000;7.360;2022-10-16T15:45:17;16.20;96.20
39401;DHT22;54391;50.000;7.360;2022-10-16T15:47:45;16.20;94.80
39401;DHT22;54391;50.000;7.360;2022-10-16T15:50:14;16.10;96.80
39401;DHT22;54391;50.000;7.360;2022-10-16T15:52:42;16.10;98.20
39401;DHT22;54391;50.000;7.360;2022-10-16T15:55:11;16.10;97.20
39401;DHT22;54391;50.000;7.360;2022-10-16T15:57:40;16.10;98.00
39401;DHT22;54391;50.000;7.360;2022-10-16T16:00:11;15.90;99.30
39401;DHT22;54391;50.000;7.360;2022-10-16T16:02:38;15.90;99.90
39401;DHT22;54391;50.000;7.360;2022-10-16T16:05:07;15.90;99.90
39401;DHT22;54391;50.000;7.360;2022-10-16T16:07:35;15.90;99.90
39401;DHT22;54391;50.000;7.360;2022-10-16T16:10:05;15.80;99.90
39401;DHT22;54391;50.000;7.360;2022-10-16T16:12:32;15.90;99.90
39401;DHT22;54391;50.000;7.360;2022-10-16T16:15:02;15.80;99.90
39401;DHT22;54391;50.000;7.360;2022-10-16T16:17:30;14.00;99.90
39401;DHT22;54391;50.000;7.360;2022-10-16T16:27:21;15.70;99.90
39401;DHT22;54391;50.000;7.360;2022-10-16T16:34:48;15.70;99.90
39401;DHT22;54391;50.000;7.360;2022-10-16T16:47:06;15.70;99.90
39401;DHT22;54391;50.000;7.360;2022-10-16T16:54:30;15.60;99.90
39401;DHT22;54391;50.000;7.360;2022-10-16T17:01:59;15.60;99.90
39401;DHT22;54391;50.000;7.360;2022-10-16T17:04:27;15.60;99.90
39401;DHT22;54391;50.000;7.360;2022-10-16T17:09:24;15.50;99.90
39401;DHT22;54391;50.000;7.360;2022-10-16T17:11:52;15.50;99.90
39401;DHT22;54391;50.000;7.360;2022-10-16T17:14:19;15.50;99.90
39401;DHT22;54391;50.000;7.360;2022-10-16T17:16:46;15.50;99.90
39401;DHT22;54391;50.000;7.360;2022-10-16T17:19:16;15.50;99.90
39401;DHT22;54391;50.000;7.360;2022-10-16T17:21:44;15.40;99.90
39401;DHT22;54391;50.000;7.360;2022-10-16T17:24:13;15.50;99.90
39401;DHT22;54391;50.000;7.360;2022-10-16T17:26:41;15.40;99.90
39401;DHT22;54391;50.000;7.360;2022-10-16T17:29:14;15.50;99.90
39401;DHT22;54391;50.000;7.360;2022-10-16T17:31:43;15.40;99.90
39401;DHT22;54391;50.000;7.360;2022-10-16T17:36:39;15.30;99.90
39401;DHT22;54391;50.000;7.360;2022-10-16T17:39:14;15.30;99.90
39401;DHT22;54391;50.000;7.360;2022-10-16T17:41:44;15.20;99.90
39401;DHT22;54391;50.000;7.360;2022-10-16T17:44:12;15.30;99.90
39401;DHT22;54391;50.000;7.360;2022-10-16T18:01:35;15.30;99.90
39401;DHT22;54391;50.000;7.360;2022-10-16T18:04:05;15.30;99.90
39401;DHT22;54391;50.000;7.360;2022-10-16T18:06:35;15.30;99.90
39401;DHT22;54391;50.000;7.360;2022-10-16T18:09:03;15.20;99.90
39401;DHT22;54391;50.000;7.360;2022-10-16T18:11:31;15.20;99.90
39401;DHT22;54391;50.000;7.360;2022-10-16T18:14:00;15.10;99.90
39401;DHT22;54391;50.000;7.360;2022-10-16T18:16:28;15.20;99.90
39401;DHT22;54391;50.000;7.360;2022-10-16T18:18:57;15.10;99.90
39401;DHT22;54391;50.000;7.360;2022-10-16T18:21:25;15.10;99.90
39401;DHT22;54391;50.000;7.360;2022-10-16T18:23:53;15.10;99.90
39401;DHT22;54391;50.000;7.360;2022-10-16T18:26:21;15.10;99.90
39401;DHT22;54391;50.000;7.360;2022-10-16T18:28:51;15.00;99.90
39401;DHT22;54391;50.000;7.360;2022-10-16T18:31:21;15.00;99.90
39401;DHT22;54391;50.000;7.360;2022-10-16T18:33:50;14.90;99.90
39401;DHT22;54391;50.000;7.360;2022-10-16T18:36:19;14.90;99.90
39401;DHT22;54391;50.000;7.360;2022-10-16T18:38:48;14.90;99.90
39401;DHT22;54391;50.000;7.360;2022-10-16T18:41:16;14.90;99.90
39401;DHT22;54391;50.000;7.360;2022-10-16T18:43:43;14.90;99.90
39401;DHT22;54391;50.000;7.360;2022-10-16T18:46:12;14.90;99.90
39401;DHT22;54391;50.000;7.360;2022-10-16T18:48:42;14.90;99.90
39401;DHT22;54391;50.000;7.360;2022-10-16T18:51:11;15.00;99.90
39401;DHT22;54391;50.000;7.360;2022-10-16T18:53:41;14.90;99.90
39401;DHT22;54391;50.000;7.360;2022-10-16T18:56:09;15.00;99.90
39401;DHT22;54391;50.000;7.360;2022-10-16T18:58:37;15.00;99.90
39401;DHT22;54391;50.000;7.360;2022-10-16T19:01:09;15.10;99.90
39401;DHT22;54391;50.000;7.360;2022-10-16T19:03:36;15.10;99.90
39401;DHT22;54391;50.000;7.360;2022-10-16T19:06:07;15.00;99.90
39401;DHT22;54391;50.000;7.360;2022-10-16T19:08:36;15.00;99.90